Time;durP1;ratioP1;P1;durP2;ratioP2;P2;SDS_P1;SDS_P2;PMS_P1;PMS_P2;Temp;Humidity;BMP_temperature;BMP_pressure;BME280_temperature;BME280_humidity;BME280_pressure;Samples;Min_cycle;Max_cycle;Signal;HPM_P1;HPM_P2
2021/11/15 00:02:02;;;;;;;5.68;3.28;;;;;;;;;;5028966;28;20036;-84
2021/11/15 00:04:28;;;;;;;4.15;3.00;;;;;;;;;;5031785;28;20029;-85
2021/11/15 00:06:55;;;;;;;3.38;2.63;;;;;;;;;;5029190;28;20033;-85
2021/11/15 00:09:21;;;;;;;3.85;2.63;;;;;;;;;;5028634;28;20029;-85
2021/11/15 00:11:47;;;;;;;4.47;2.95;;;;;;;;;;5030085;28;20037;-85
2021/11/15 00:14:14;;;;;;;5.40;2.72;;;;;;;;;;5029829;28;20411;-85
2021/11/15 00:16:40;;;;;;;5.43;3.05;;;;;;;;;;5044319;28;20026;-84
2021/11/15 00:19:06;;;;;;;4.00;2.80;;;;;;;;;;5030527;28;20033;-86
2021/11/15 00:21:32;;;;;;;6.40;3.63;;;;;;;;;;5027947;28;20042;-85
2021/11/15 00:23:58;;;;;;;7.05;3.72;;;;;;;;;;5046419;28;20033;-85
2021/11/15 00:26:24;;;;;;;6.03;2.55;;;;;;;;;;5027381;28;20123;-85
2021/11/15 00:28:50;;;;;;;6.10;4.25;;;;;;;;;;5029573;28;20029;-85
2021/11/15 00:31:16;;;;;;;4.45;2.70;;;;;;;;;;5025972;28;20032;-85
2021/11/15 00:33:42;;;;;;;5.07;2.95;;;;;;;;;;5026773;28;20029;-85
2021/11/15 00:36:08;;;;;;;4.45;2.75;;;;;;;;;;5027681;28;20033;-84
2021/11/15 00:38:34;;;;;;;5.38;2.95;;;;;;;;;;5028035;28;20037;-85
2021/11/15 00:41:00;;;;;;;12.50;3.47;;;;;;;;;;5029148;28;20578;-86
2021/11/15 00:43:26;;;;;;;7.93;3.80;;;;;;;;;;5026542;28;20085;-85
2021/11/15 00:45:52;;;;;;;6.85;3.88;;;;;;;;;;5027200;28;20017;-85
2021/11/15 00:48:18;;;;;;;8.63;2.92;;;;;;;;;;5026485;28;20519;-85
2021/11/15 00:50:44;;;;;;;6.05;4.25;;;;;;;;;;5029140;28;20060;-85
2021/11/15 00:53:10;;;;;;;11.50;4.65;;;;;;;;;;5029454;28;20842;-84
2021/11/15 00:55:36;;;;;;;4.30;2.90;;;;;;;;;;5030272;28;20048;-84
2021/11/15 00:58:05;;;;;;;6.22;3.03;;;;;;;;;;5027396;28;20097;-86
2021/11/15 01:00:31;;;;;;;7.85;3.33;;;;;;;;;;5029059;28;20041;-84
2021/11/15 01:02:58;;;;;;;12.02;2.38;;;;;;;;;;5028984;28;20021;-85
2021/11/15 01:05:25;;;;;;;7.63;3.88;;;;;;;;;;5028857;28;20548;-85
2021/11/15 01:07:51;;;;;;;13.50;3.13;;;;;;;;;;5028628;28;20041;-85
2021/11/15 01:10:20;;;;;;;12.82;3.17;;;10.70;86.10;;;;;;5024916;28;20041;-84
2021/11/15 01:12:47;;;;;;;5.43;2.78;;;10.70;85.80;;;;;;5013642;28;20061;-84
2021/11/15 01:15:16;;;;;;;10.43;4.57;;;10.70;85.40;;;;;;5037211;28;20077;-85
2021/11/15 01:17:43;;;;;;;8.43;3.60;;;;;;;;;;5027918;28;20079;-85
2021/11/15 01:20:10;;;;;;;6.55;3.85;;;;;;;;;;5026519;28;20026;-84
2021/11/15 01:22:36;;;;;;;4.75;2.97;;;;;;;;;;5030096;28;20029;-85
2021/11/15 01:25:04;;;;;;;4.88;3.03;;;;;;;;;;5041413;28;20026;-84
2021/11/15 01:27:30;;;;;;;4.75;2.45;;;;;;;;;;5024503;28;20029;-85
2021/11/15 01:29:56;;;;;;;4.60;2.60;;;;;;;;;;5028711;28;20037;-85
2021/11/15 01:32:22;;;;;;;5.78;3.05;;;;;;;;;;5028811;28;20510;-86
2021/11/15 01:34:48;;;;;;;7.47;3.60;;;;;;;;;;5028316;28;20034;-85
2021/11/15 01:37:14;;;;;;;4.22;3.13;;;;;;;;;;5030240;28;20091;-85
2021/11/15 01:39:41;;;;;;;4.70;3.38;;;;;;;;;;5044883;28;20447;-85
2021/11/15 01:42:08;;;;;;;4.30;2.47;;;;;;;;;;5029917;28;20107;-85
2021/11/15 01:44:35;;;;;;;7.20;2.83;;;;;;;;;;5028503;28;20471;-85
2021/11/15 01:47:01;;;;;;;3.67;2.58;;;;;;;;;;5042450;28;20415;-84
2021/11/15 01:49:27;;;;;;;5.07;4.15;;;;;;;;;;5030204;28;20087;-85
2021/11/15 01:51:53;;;;;;;6.72;3.97;;;;;;;;;;5022741;28;20029;-84
2021/11/15 01:54:20;;;;;;;7.60;3.40;;;;;;;;;;5026765;28;20041;-85
2021/11/15 01:56:48;;;;;;;6.35;3.03;;;;;;;;;;5028501;28;20459;-85
2021/11/15 01:59:14;;;;;;;5.05;2.72;;;;;;;;;;5030560;28;20029;-85
2021/11/15 02:01:40;;;;;;;5.20;3.42;;;;;;;;;;5029056;28;20029;-85
2021/11/15 02:04:06;;;;;;;6.07;3.50;;;;;;;;;;5028971;28;20488;-84
2021/11/15 02:06:32;;;;;;;4.63;2.42;;;;;;;;;;5044784;28;20076;-85
2021/11/15 02:08:58;;;;;;;4.90;2.08;;;;;;;;;;5027549;28;20026;-84
2021/11/15 02:11:25;;;;;;;8.93;3.15;;;;;;;;;;5027673;28;20120;-85
2021/11/15 02:13:51;;;;;;;4.53;2.92;;;;;;;;;;5028303;28;20082;-85
2021/11/15 02:16:17;;;;;;;5.22;2.60;;;;;;;;;;5029278;28;20033;-85
2021/11/15 02:18:43;;;;;;;5.93;3.83;;;;;;;;;;5025780;28;20033;-86
2021/11/15 02:21:10;;;;;;;5.50;2.58;;;;;;;;;;5028416;28;20056;-85
2021/11/15 02:23:38;;;;;;;3.28;2.55;;;;;;;;;;5026142;28;20029;-85
2021/11/15 02:26:05;;;;;;;4.05;2.97;;;;;;;;;;5027672;28;20077;-84
2021/11/15 02:28:34;;;;;;;5.05;2.78;;;10.70;86.40;;;;;;5029756;28;20148;-85
2021/11/15 02:31:01;;;;;;;3.58;3.03;;;;;;;;;;5028792;28;20077;-85
2021/11/15 02:33:28;;;;;;;6.78;3.25;;;;;;;;;;5028130;28;20037;-85
2021/11/15 02:35:55;;;;;;;6.53;3.60;;;;;;;;;;5043833;28;20448;-85
2021/11/15 02:38:21;;;;;;;5.82;3.85;;;;;;;;;;5027709;28;20049;-86
2021/11/15 02:40:47;;;;;;;4.65;2.45;;;;;;;;;;5042199;28;20484;-85
2021/11/15 02:43:13;;;;;;;8.55;3.13;;;;;;;;;;5029995;28;20050;-85
2021/11/15 02:45:39;;;;;;;5.57;3.13;;;;;;;;;;5044703;28;20029;-85
2021/11/15 02:48:05;;;;;;;8.93;3.20;;;;;;;;;;5024384;28;20030;-85
2021/11/15 02:50:33;;;;;;;7.70;3.17;;;;;;;;;;5033197;28;20073;-85
2021/11/15 02:53:00;;;;;;;3.20;2.30;;;;;;;;;;5032122;28;20108;-85
2021/11/15 02:55:27;;;;;;;5.38;2.47;;;;;;;;;;5033466;28;20467;-85
2021/11/15 02:57:54;;;;;;;7.93;3.03;;;;;;;;;;5029375;28;20064;-85
2021/11/15 03:00:21;;;;;;;3.72;2.88;;;;;;;;;;5031080;28;20037;-86
2021/11/15 03:02:47;;;;;;;6.20;3.10;;;;;;;;;;5047665;28;20407;-85
2021/11/15 03:05:13;;;;;;;5.30;2.65;;;;;;;;;;5031209;28;20017;-85
2021/11/15 03:07:44;;;;;;;5.32;2.97;;;;;;;;;;5032679;28;20032;-86
2021/11/15 03:10:09;;;;;;;5.07;2.58;;;;;;;;;;5032790;28;20029;-85
2021/11/15 03:12:35;;;;;;;7.40;3.53;;;;;;;;;;5044076;28;20040;-85
2021/11/15 03:15:01;;;;;;;8.25;4.22;;;;;;;;;;5022036;28;20037;-85
2021/11/15 03:17:27;;;;;;;3.25;2.15;;;;;;;;;;5047535;28;20107;-85
2021/11/15 03:19:53;;;;;;;4.13;2.15;;;;;;;;;;5031193;28;20771;-85
2021/11/15 03:22:19;;;;;;;5.25;2.90;;;;;;;;;;5044807;28;20076;-85
2021/11/15 03:24:46;;;;;;;5.18;3.00;;;;;;;;;;5029474;28;20037;-85
2021/11/15 03:27:12;;;;;;;5.40;2.85;;;;;;;;;;5029237;28;20032;-84
2021/11/15 03:29:38;;;;;;;5.53;3.05;;;;;;;;;;5028974;28;20021;-84
2021/11/15 03:32:04;;;;;;;6.28;3.35;;;;;;;;;;5031263;28;20026;-85
2021/11/15 03:34:30;;;;;;;6.60;3.05;;;;;;;;;;5032449;28;20025;-85
2021/11/15 03:36:56;;;;;;;6.85;3.53;;;;;;;;;;5030165;28;20037;-84
2021/11/15 03:39:22;;;;;;;5.55;2.53;;;;;;;;;;5030987;28;20029;-85
2021/11/15 03:41:48;;;;;;;8.73;3.28;;;;;;;;;;5046879;28;20041;-85
2021/11/15 03:44:16;;;;;;;5.78;2.95;;;;;;;;;;5028797;28;20499;-85
2021/11/15 03:46:42;;;;;;;5.95;3.95;;;;;;;;;;5031352;28;20025;-85
2021/11/15 03:49:14;;;;;;;6.47;3.33;;;;;;;;;;5031268;28;20029;-85
2021/11/15 03:51:40;;;;;;;5.82;2.47;;;;;;;;;;5029036;28;20412;-85
2021/11/15 03:54:06;;;;;;;6.15;3.92;;;;;;;;;;5030421;28;20040;-85
2021/11/15 03:56:32;;;;;;;9.23;3.90;;;;;;;;;;5027732;28;20025;-84
2021/11/15 03:58:59;;;;;;;6.65;3.60;;;;;;;;;;5029877;28;20022;-85
2021/11/15 04:01:29;;;;;;;10.82;3.25;;;10.90;81.00;;;;;;5032281;28;20434;-84
2021/11/15 04:04:00;;;;;;;5.07;2.88;;;10.80;82.50;;;;;;5030157;28;20515;-85
2021/11/15 04:06:29;;;;;;;8.35;4.13;;;10.70;82.70;;;;;;5029936;28;20037;-85
2021/11/15 04:09:01;;;;;;;7.13;3.00;;;10.80;83.10;;;;;;5032099;28;20025;-84
2021/11/15 04:11:29;;;;;;;6.35;3.30;;;10.80;82.40;;;;;;5029706;28;20033;-85
2021/11/15 04:13:58;;;;;;;7.60;4.03;;;;;;;;;;5029892;28;20034;-85
2021/11/15 04:16:24;;;;;;;10.05;3.28;;;;;;;;;;5044006;28;20048;-85
2021/11/15 04:18:52;;;;;;;5.72;3.30;;;;;;;;;;5028724;28;20038;-86
2021/11/15 04:21:19;;;;;;;6.03;4.15;;;;;;;;;;5029573;28;20033;-85
2021/11/15 04:23:45;;;;;;;6.63;3.60;;;;;;;;;;5030064;28;20021;-85
2021/11/15 04:26:11;;;;;;;6.45;3.33;;;;;;;;;;5029292;28;20035;-85
2021/11/15 04:28:37;;;;;;;5.70;3.10;;;;;;;;;;5043246;28;20030;-85
2021/11/15 04:31:03;;;;;;;7.65;4.05;;;;;;;;;;5030294;28;20060;-85
2021/11/15 04:33:29;;;;;;;8.85;3.88;;;;;;;;;;5029202;28;20495;-85
2021/11/15 04:35:56;;;;;;;6.30;3.58;;;;;;;;;;5046113;28;20061;-85
2021/11/15 04:38:22;;;;;;;7.20;3.20;;;;;;;;;;5029174;28;20075;-86
2021/11/15 04:40:49;;;;;;;6.53;3.97;;;;;;;;;;5043740;28;20385;-85
2021/11/15 04:43:15;;;;;;;8.70;4.57;;;;;;;;;;5031403;28;20308;-85
2021/11/15 04:45:41;;;;;;;8.18;4.72;;;;;;;;;;5029287;28;20033;-85
2021/11/15 04:48:07;;;;;;;11.80;3.63;;;;;;;;;;5029284;28;20095;-85
2021/11/15 04:50:33;;;;;;;9.40;3.63;;;;;;;;;;5029350;28;20072;-86
2021/11/15 04:53:00;;;;;;;5.82;4.53;;;;;;;;;;5029489;28;20080;-85
2021/11/15 04:55:26;;;;;;;6.13;3.35;;;;;;;;;;5030893;28;20403;-84
2021/11/15 04:57:53;;;;;;;9.13;4.50;;;;;;;;;;5028657;28;20030;-85
2021/11/15 05:00:20;;;;;;;5.65;3.20;;;;;;;;;;5028988;28;20032;-85
2021/11/15 05:02:46;;;;;;;4.18;2.95;;;;;;;;;;5028993;28;20033;-85
2021/11/15 05:05:13;;;;;;;6.07;3.15;;;;;;;;;;5027145;28;20036;-85
2021/11/15 05:07:39;;;;;;;9.85;3.78;;;;;;;;;;5030070;28;20037;-85
2021/11/15 05:10:06;;;;;;;6.40;3.55;;;;;;;;;;5027367;28;20106;-85
2021/11/15 05:12:35;;;;;;;5.60;3.00;;;;;;;;;;5041778;28;20030;-85
2021/11/15 05:15:02;;;;;;;5.55;3.17;;;;;;;;;;5021007;28;20033;-85
2021/11/15 05:17:28;;;;;;;6.83;3.73;;;;;;;;;;5045422;28;20057;-86
2021/11/15 05:19:54;;;;;;;5.43;3.35;;;;;;;;;;5029157;28;20079;-86
2021/11/15 05:22:20;;;;;;;5.90;3.45;;;;;;;;;;5030474;28;20018;-86
2021/11/15 05:24:46;;;;;;;8.75;4.55;;;;;;;;;;5028233;28;20400;-85
2021/11/15 05:27:12;;;;;;;6.70;3.33;;;;;;;;;;5028461;28;20022;-84
2021/11/15 05:29:38;;;;;;;6.03;3.38;;;;;;;;;;5028700;28;20025;-84
2021/11/15 05:32:04;;;;;;;7.22;3.70;;;;;;;;;;5043145;28;20491;-85
2021/11/15 05:34:30;;;;;;;6.13;4.03;;;;;;;;;;5030039;28;20488;-86
2021/11/15 05:36:56;;;;;;;6.38;3.75;;;;;;;;;;5028438;28;20021;-85
2021/11/15 05:39:22;;;;;;;6.90;3.78;;;;;;;;;;5026480;28;20064;-86
2021/11/15 05:41:48;;;;;;;6.95;3.28;;;;;;;;;;5027699;28;20044;-86
2021/11/15 05:44:14;;;;;;;6.90;4.13;;;;;;;;;;5045116;28;20033;-85
2021/11/15 05:46:41;;;;;;;16.48;4.93;;;;;;;;;;5029398;28;20072;-85
2021/11/15 05:49:07;;;;;;;10.50;4.10;;;;;;;;;;5024640;28;20112;-85
2021/11/15 05:51:33;;;;;;;7.80;4.60;;;;;;;;;;5024869;28;20549;-85
2021/11/15 05:53:59;;;;;;;8.52;4.85;;;;;;;;;;5043998;28;20080;-86
2021/11/15 05:56:25;;;;;;;8.93;4.32;;;;;;;;;;5026401;28;20029;-85
2021/11/15 05:58:51;;;;;;;9.57;4.63;;;;;;;;;;5042774;28;20034;-85
2021/11/15 06:01:17;;;;;;;11.05;4.43;;;;;;;;;;5041943;28;20030;-86
2021/11/15 06:03:44;;;;;;;9.23;3.78;;;;;;;;;;5026268;28;20025;-85
2021/11/15 06:06:10;;;;;;;6.45;3.88;;;;;;;;;;5028619;28;20028;-85
2021/11/15 06:08:37;;;;;;;7.65;3.72;;;;;;;;;;5027357;28;20025;-86
2021/11/15 06:11:03;;;;;;;10.20;5.18;;;;;;;;;;5028042;28;20022;-86
2021/11/15 06:13:30;;;;;;;8.15;4.20;;;;;;;;;;5029904;28;20484;-85
2021/11/15 06:15:56;;;;;;;11.20;3.95;;;;;;;;;;5041212;28;20087;-86
2021/11/15 06:18:22;;;;;;;7.93;4.22;;;;;;;;;;5018799;28;20093;-85
2021/11/15 06:20:48;;;;;;;9.52;4.70;;;;;;;;;;5026195;28;20487;-86
2021/11/15 06:23:14;;;;;;;8.35;4.32;;;;;;;;;;5030773;28;20030;-84
2021/11/15 06:25:40;;;;;;;10.30;5.03;;;;;;;;;;5031587;28;20090;-85
2021/11/15 06:28:06;;;;;;;12.20;4.30;;;;;;;;;;5030616;28;20044;-85
2021/11/15 06:30:32;;;;;;;9.93;4.95;;;;;;;;;;5027872;28;20112;-85
2021/11/15 06:32:58;;;;;;;10.15;4.75;;;;;;;;;;5047337;28;20041;-86
2021/11/15 06:35:27;;;;;;;8.40;4.90;;;;;;;;;;5046285;28;20516;-85
2021/11/15 06:37:53;;;;;;;9.10;6.47;;;;;;;;;;5045197;28;20034;-85
2021/11/15 06:40:19;;;;;;;9.95;3.63;;;;;;;;;;5029760;28;20025;-84
2021/11/15 06:42:46;;;;;;;6.10;3.03;;;10.60;81.90;;;;;;5030581;28;20056;-87
2021/11/15 06:45:12;;;;;;;11.93;5.03;;;;;;;;;;5046310;28;20403;-87
2021/11/15 06:47:40;;;;;;;12.63;4.68;;;;;;;;;;5031459;28;20020;-86
2021/11/15 06:50:07;;;;;;;10.57;3.92;;;;;;;;;;5027596;28;20396;-86
2021/11/15 06:52:34;;;;;;;10.85;4.28;;;;;;;;;;5017606;28;20053;-87
2021/11/15 06:55:00;;;;;;;11.43;5.43;;;;;;;;;;5030091;28;20030;-88
2021/11/15 06:57:26;;;;;;;9.00;4.50;;;;;;;;;;5021291;28;20049;-87
2021/11/15 06:59:52;;;;;;;9.35;3.83;;;;;;;;;;5024146;28;20116;-86
2021/11/15 07:02:18;;;;;;;15.23;4.70;;;;;;;;;;5030102;28;20120;-87
2021/11/15 07:04:44;;;;;;;6.20;4.22;;;;;;;;;;5028963;28;20484;-88
2021/11/15 07:07:10;;;;;;;13.90;5.55;;;;;;;;;;5031100;28;20036;-86
2021/11/15 07:09:36;;;;;;;12.77;4.85;;;;;;;;;;5027982;28;20112;-87
2021/11/15 07:12:02;;;;;;;9.73;6.72;;;;;;;;;;5027869;28;20122;-86
2021/11/15 07:14:28;;;;;;;14.02;6.63;;;;;;;;;;5016879;28;20623;-87
2021/11/15 07:16:54;;;;;;;16.17;5.65;;;;;;;;;;5031168;28;20404;-88
2021/11/15 07:19:21;;;;;;;12.18;4.95;;;10.70;81.70;;;;;;5028534;28;20021;-86
2021/11/15 07:21:47;;;;;;;13.18;5.22;;;;;;;;;;5017954;28;20439;-87
2021/11/15 07:24:13;;;;;;;9.25;5.03;;;;;;;;;;5019941;28;20029;-84
2021/11/15 07:26:39;;;;;;;10.93;5.03;;;;;;;;;;5025655;28;20049;-85
2021/11/15 07:29:05;;;;;;;12.50;5.25;;;;;;;;;;5014874;28;20487;-85
2021/11/15 07:31:31;;;;;;;10.48;5.78;;;;;;;;;;5024394;28;20040;-85
2021/11/15 07:33:57;;;;;;;13.57;7.13;;;;;;;;;;5026559;28;20038;-84
2021/11/15 07:36:24;;;;;;;7.55;4.18;;;;;;;;;;5028667;28;20038;-85
2021/11/15 07:38:50;;;;;;;9.60;4.45;;;;;;;;;;5029636;28;20554;-85
2021/11/15 07:41:16;;;;;;;8.63;3.78;;;;;;;;;;5027381;28;20502;-85
2021/11/15 07:43:42;;;;;;;9.73;4.32;;;;;;;;;;5030249;28;20037;-84
2021/11/15 07:46:08;;;;;;;14.25;7.80;;;;;;;;;;5030322;28;20468;-84
2021/11/15 07:48:35;;;;;;;9.77;4.07;;;;;;;;;;5029144;28;20033;-85
2021/11/15 07:51:01;;;;;;;9.65;4.40;;;;;;;;;;5030035;28;20535;-84
2021/11/15 07:53:30;;;;;;;8.93;4.88;;;;;;;;;;5043729;28;20444;-84
2021/11/15 07:55:56;;;;;;;8.68;3.92;;;;;;;;;;5030574;28;25286;-85
2021/11/15 07:58:22;;;;;;;6.93;3.75;;;11.00;78.50;;;;;;5015803;28;20046;-88
2021/11/15 08:00:49;;;;;;;9.35;4.03;;;;;;;;;;5032304;28;20017;-86
2021/11/15 08:03:15;;;;;;;8.18;3.78;;;;;;;;;;5044059;28;20124;-85
2021/11/15 08:05:41;;;;;;;11.43;4.13;;;;;;;;;;5029499;28;20543;-84
2021/11/15 08:08:07;;;;;;;7.25;3.58;;;;;;;;;;5029166;28;20068;-85
2021/11/15 08:10:33;;;;;;;11.48;5.40;;;;;;;;;;5029969;28;20072;-85
2021/11/15 08:12:59;;;;;;;7.18;5.18;;;;;;;;;;5040152;28;20112;-85
2021/11/15 08:15:26;;;;;;;12.75;4.22;;;;;;;;;;5028815;28;20053;-85
2021/11/15 08:17:54;;;;;;;12.30;6.05;;;;;;;;;;5026296;28;20045;-85
2021/11/15 08:20:28;;;;;;;12.27;5.05;;;;;;;;;;5014384;28;20037;-85
2021/11/15 08:22:58;;;;;;;10.30;5.35;;;11.10;78.30;;;;;;5027823;28;20025;-85
2021/11/15 08:25:30;;;;;;;11.73;5.53;;;;;;;;;;5030645;28;20060;-85
2021/11/15 08:27:57;;;;;;;11.77;5.22;;;11.10;78.90;;;;;;5029445;28;20045;-86
2021/11/15 08:30:24;;;;;;;11.23;3.53;;;;;;;;;;5021777;28;20025;-87
2021/11/15 08:32:50;;;;;;;10.35;5.38;;;11.00;78.70;;;;;;5018626;28;20034;-87
2021/11/15 08:35:19;;;;;;;18.17;7.57;;;11.00;78.40;;;;;;5029037;28;20065;-87
2021/11/15 08:38:12;;;;;;;10.80;4.90;;;;;;;;;;5010913;28;20025;-88
2021/11/15 08:40:38;;;;;;;13.68;5.32;;;;;;;;;;4970600;28;20051;-87
2021/11/15 08:43:04;;;;;;;7.65;4.40;;;;;;;;;;4995127;28;20398;-87
2021/11/15 08:45:31;;;;;;;10.75;5.20;;;;;;;;;;4988971;28;20038;-86
2021/11/15 08:47:57;;;;;;;;;;;11.20;78.40;;;;;;4995384;28;20848;-85
2021/11/15 08:50:23;;;;;;;11.85;4.80;;;;;;;;;;4990257;28;19921;-86
2021/11/15 08:52:49;;;;;;;14.05;6.13;;;;;;;;;;4971741;28;20069;-85
2021/11/15 08:55:15;;;;;;;15.75;6.47;;;;;;;;;;4978484;28;20043;-86
2021/11/15 08:57:41;;;;;;;11.40;4.97;;;;;;;;;;4985049;28;20038;-85
2021/11/15 09:00:07;;;;;;;11.52;4.53;;;;;;;;;;4984303;28;20022;-87
2021/11/15 09:02:33;;;;;;;9.05;5.68;;;;;;;;;;4984745;28;20027;-87
2021/11/15 09:04:59;;;;;;;10.70;5.22;;;;;;;;;;4972688;28;20089;-85
2021/11/15 09:07:26;;;;;;;13.00;4.55;;;;;;;;;;4998522;28;20045;-87
2021/11/15 09:09:52;;;;;;;10.60;5.15;;;;;;;;;;4997520;28;20030;-87
2021/11/15 09:12:18;;;;;;;15.15;5.03;;;;;;;;;;4988507;28;20033;-85
2021/11/15 09:14:45;;;;;;;9.70;4.90;;;;;;;;;;4970385;28;20056;-88
2021/11/15 09:17:11;;;;;;;11.35;4.28;;;;;;;;;;5004698;28;20098;-87
2021/11/15 09:19:38;;;;;;;7.63;4.22;;;;;;;;;;5028720;28;20120;-87
2021/11/15 09:22:04;;;;;;;9.02;5.43;;;;;;;;;;5030423;28;20400;-87
2021/11/15 09:24:31;;;;;;;8.15;3.55;;;;;;;;;;5025028;28;20199;-86
2021/11/15 09:26:57;;;;;;;9.95;4.32;;;;;;;;;;5024943;28;20141;-86
2021/11/15 09:29:24;;;;;;;13.35;4.90;;;;;;;;;;5028963;28;20059;-87
2021/11/15 09:31:50;;;;;;;10.80;4.97;;;;;;;;;;5027504;28;20037;-84
2021/11/15 09:34:16;;;;;;;12.35;5.22;;;;;;;;;;5014163;28;20034;-85
2021/11/15 09:36:42;;;;;;;10.80;5.15;;;;;;;;;;5024927;28;20119;-84
2021/11/15 09:39:08;;;;;;;10.02;5.05;;;;;;;;;;5027775;28;20029;-85
2021/11/15 09:41:34;;;;;;;17.48;5.32;;;;;;;;;;5028146;28;20523;-85
2021/11/15 09:44:01;;;;;;;6.65;5.82;;;;;;;;;;5010926;28;20083;-86
2021/11/15 09:46:27;;;;;;;11.02;3.88;;;;;;;;;;5014932;28;20105;-87
2021/11/15 09:49:09;;;;;;;9.30;4.22;;;;;;;;;;5020057;28;20627;-84
2021/11/15 09:51:35;;;;;;;16.20;6.15;;;;;;;;;;5041161;28;20029;-87
2021/11/15 09:54:03;;;;;;;15.30;6.65;;;;;;;;;;5020680;28;20045;-87
2021/11/15 09:56:29;;;;;;;19.50;6.90;;;;;;;;;;5029025;28;20038;-87
2021/11/15 09:58:55;;;;;;;13.18;4.35;;;;;;;;;;5027890;28;20040;-87
2021/11/15 10:01:21;;;;;;;10.43;5.13;;;;;;;;;;5025427;28;20605;-85
2021/11/15 10:03:47;;;;;;;12.10;6.10;;;;;;;;;;5014330;28;20052;-85
2021/11/15 10:06:14;;;;;;;14.10;6.35;;;;;;;;;;5018287;28;20033;-86
2021/11/15 10:08:44;;;;;;;12.45;6.38;;;;;;;;;;5024837;28;20029;-86
2021/11/15 10:11:10;;;;;;;13.80;6.57;;;;;;;;;;5028443;28;20389;-86
2021/11/15 10:13:36;;;;;;;12.50;6.22;;;;;;;;;;5012399;28;20040;-85
2021/11/15 10:16:20;;;;;;;19.23;8.93;;;11.20;78.70;;;;;;5024774;28;20061;-86
2021/11/15 10:18:51;;;;;;;18.30;7.50;;;;;;;;;;5026873;28;20057;-85
2021/11/15 10:21:21;;;;;;;16.33;9.55;;;11.30;77.80;;;;;;5022472;28;20052;-85
2021/11/15 10:23:49;;;;;;;11.32;6.47;;;;;;;;;;5013901;28;20084;-85
2021/11/15 10:26:20;;;;;;;15.48;9.18;;;;;;;;;;5026933;28;20500;-86
2021/11/15 10:28:46;;;;;;;25.80;10.68;;;;;;;;;;5027589;28;20034;-85
2021/11/15 10:31:26;;;;;;;16.48;5.85;;;;;;;;;;5027622;28;20025;-85
2021/11/15 10:33:52;;;;;;;22.85;8.32;;;;;;;;;;5026451;28;20171;-85
2021/11/15 10:36:18;;;;;;;13.55;6.90;;;;;;;;;;5024290;28;20045;-85
2021/11/15 10:38:46;;;;;;;20.75;7.85;;;;;;;;;;5027180;28;20022;-85
2021/11/15 10:41:21;;;;;;;14.25;7.07;;;11.40;77.20;;;;;;5026734;28;20029;-85
2021/11/15 10:43:56;;;;;;;12.20;6.57;;;;;;;;;;5025510;28;20050;-86
2021/11/15 10:46:48;;;;;;;11.20;4.22;;;;;;;;;;5025917;28;20029;-85
2021/11/15 10:49:19;;;;;;;12.77;6.38;;;11.50;77.60;;;;;;5011838;28;20068;-85
2021/11/15 10:51:51;;;;;;;11.07;4.68;;;;;;;;;;5025515;28;20091;-85
2021/11/15 10:54:52;;;;;;;7.85;3.78;;;11.30;76.50;;;;;;5027529;28;20038;-84
2021/11/15 10:57:40;;;;;;;8.95;4.15;;;;;;;;;;5021028;28;20041;-83
2021/11/15 11:02:33;;;;;;;9.43;3.83;;;;;;;;;;5011910;28;20100;-84
2021/11/15 11:05:10;;;;;;;11.17;5.40;;;11.50;76.60;;;;;;5029356;28;20029;-85
2021/11/15 11:07:37;;;;;;;11.32;4.63;;;;;;;;;;5026130;28;20546;-85
2021/11/15 11:10:14;;;;;;;8.83;4.17;;;;;;;;;;5026945;28;20026;-84
2021/11/15 11:12:44;;;;;;;5.93;3.10;;;;;;;;;;5026719;28;20662;-84
2021/11/15 11:15:32;;;;;;;8.77;3.65;;;;;;;;;;5026326;28;20707;-85
2021/11/15 11:18:12;;;;;;;7.85;4.13;;;;;;;;;;5027397;28;20037;-85
2021/11/15 11:21:25;;;;;;;10.82;4.50;;;11.60;76.20;;;;;;5019410;28;20102;-84
2021/11/15 11:26:32;;;;;;;8.30;4.50;;;;;;;;;;5027633;28;20038;-84
2021/11/15 11:29:09;;;;;;;11.73;4.78;;;;;;;;;;5029897;28;20030;-85
2021/11/15 11:31:37;;;;;;;11.05;5.10;;;;;;;;;;5011923;28;20193;-85
2021/11/15 11:34:03;;;;;;;14.05;4.60;;;;;;;;;;5026186;28;20049;-84
2021/11/15 11:36:29;;;;;;;12.33;5.00;;;;;;;;;;5023172;28;20538;-84
2021/11/15 11:38:56;;;;;;;7.53;4.40;;;;;;;;;;5017180;28;20033;-85
2021/11/15 11:41:22;;;;;;;10.15;4.70;;;;;;;;;;5028248;28;20030;-85
2021/11/15 11:43:49;;;;;;;14.15;4.38;;;;;;;;;;5028276;28;20065;-83
2021/11/15 11:46:17;;;;;;;13.35;5.43;;;;;;;;;;5018101;28;20063;-84
2021/11/15 11:48:48;;;;;;;9.90;4.30;;;;;;;;;;5018776;28;20167;-84
2021/11/15 11:51:16;;;;;;;6.55;3.80;;;11.20;78.70;;;;;;5018962;28;20030;-85
2021/11/15 11:53:41;;;;;;;;;;;;;;;;;;5032884;28;20026;-87
2021/11/15 11:56:21;;;;;;;8.43;4.55;;;11.20;78.70;;;;;;5044809;28;19928;-86
2021/11/15 11:58:49;;;;;;;15.90;5.25;;;;;;;;;;5030316;28;20025;-85
2021/11/15 12:01:20;;;;;;;7.30;3.83;;;;;;;;;;5032077;28;20115;-86
2021/11/15 12:04:11;;;;;;;13.63;4.32;;;11.30;78.40;;;;;;5030452;28;20106;-85
2021/11/15 12:06:37;;;;;;;7.82;4.35;;;;;;;;;;5022337;28;20117;-86
2021/11/15 12:09:04;;;;;;;8.77;3.60;;;;;;;;;;5021853;28;20440;-85
2021/11/15 12:11:31;;;;;;;7.15;4.22;;;;;;;;;;5017668;28;20432;-87
2021/11/15 12:13:58;;;;;;;6.85;4.07;;;;;;;;;;5014732;28;20033;-87
2021/11/15 12:16:24;;;;;;;8.80;3.85;;;;;;;;;;5029130;28;20095;-85
2021/11/15 12:18:58;;;;;;;8.63;5.72;;;11.30;78.20;;;;;;5019799;28;20096;-85
2021/11/15 12:21:32;;;;;;;9.90;5.03;;;11.40;78.10;;;;;;5018602;28;20125;-84
2021/11/15 12:24:05;;;;;;;8.40;3.67;;;;;;;;;;5018371;28;20077;-87
2021/11/15 12:26:37;;;;;;;11.07;3.53;;;;;;;;;;5019116;28;20025;-85
2021/11/15 12:29:15;;;;;;;7.15;4.97;;;;;;;;;;5044235;28;20032;-83
2021/11/15 12:31:45;;;;;;;8.60;4.18;;;;;;;;;;5011174;28;20018;-86
2021/11/15 12:34:11;;;;;;;11.45;4.35;;;;;;;;;;5026666;28;20515;-86
2021/11/15 12:36:40;;;;;;;7.53;4.55;;;11.30;76.20;;;;;;5017633;28;20049;-86
2021/11/15 12:39:10;;;;;;;8.75;5.85;;;;;;;;;;5021917;28;20037;-85
2021/11/15 12:41:37;;;;;;;9.95;4.18;;;11.30;76.60;;;;;;5029724;28;20120;-86
2021/11/15 12:44:04;;;;;;;6.50;3.45;;;;;;;;;;5013815;28;20057;-84
2021/11/15 12:46:40;;;;;;;10.68;3.65;;;;;;;;;;5025141;28;20128;-84
2021/11/15 12:49:24;;;;;;;6.50;3.30;;;;;;;;;;5015856;28;20040;-83
2021/11/15 12:52:06;;;;;;;6.47;3.40;;;;;;;;;;5023456;28;20036;-84
2021/11/15 12:54:36;;;;;;;9.55;3.67;;;;;;;;;;5024655;28;20026;-84
2021/11/15 12:57:04;;;;;;;10.77;3.33;;;;;;;;;;5028787;28;20035;-86
2021/11/15 12:59:30;;;;;;;10.43;4.65;;;;;;;;;;5029798;28;20026;-85
2021/11/15 13:01:56;;;;;;;7.93;3.33;;;;;;;;;;5012762;28;20450;-87
2021/11/15 13:04:23;;;;;;;8.40;3.88;;;11.40;76.20;;;;;;5025564;28;20026;-87
2021/11/15 13:06:49;;;;;;;9.27;4.90;;;;;;;;;;5018192;28;20029;-86
2021/11/15 13:09:16;;;;;;;7.80;4.13;;;;;;;;;;5023831;28;20026;-86
2021/11/15 13:11:43;;;;;;;8.30;4.18;;;;;;;;;;5029422;28;20036;-85
2021/11/15 13:14:11;;;;;;;;;;;;;;;;;;5030113;28;20519;-86
2021/11/15 13:16:37;;;;;;;7.55;4.35;;;;;;;;;;5030487;28;19921;-86
2021/11/15 13:19:03;;;;;;;13.75;3.63;;;;;;;;;;5017517;28;20026;-86
2021/11/15 13:21:29;;;;;;;9.55;3.55;;;;;;;;;;5017762;28;20056;-85
2021/11/15 13:23:55;;;;;;;4.45;3.08;;;;;;;;;;5017928;28;20017;-86
2021/11/15 13:26:21;;;;;;;6.18;4.15;;;;;;;;;;5013932;28;20090;-86
2021/11/15 13:28:47;;;;;;;7.00;3.67;;;;;;;;;;5011131;28;20065;-87
2021/11/15 13:31:13;;;;;;;6.65;3.65;;;;;;;;;;5015938;28;20099;-85
2021/11/15 13:33:39;;;;;;;7.70;4.65;;;;;;;;;;5020886;28;20037;-87
2021/11/15 13:36:06;;;;;;;6.20;3.28;;;;;;;;;;5023570;28;20049;-85
2021/11/15 13:38:33;;;;;;;9.47;4.73;;;;;;;;;;5014943;28;20022;-85
2021/11/15 13:40:59;;;;;;;7.15;3.53;;;;;;;;;;5028268;28;20033;-86
2021/11/15 13:43:27;;;;;;;7.65;3.25;;;;;;;;;;5029796;28;20045;-84
2021/11/15 13:45:54;;;;;;;8.82;4.28;;;;;;;;;;5024322;28;20140;-86
2021/11/15 13:48:21;;;;;;;5.50;2.80;;;;;;;;;;5028296;28;20109;-85
2021/11/15 13:50:47;;;;;;;6.80;3.22;;;;;;;;;;5025788;28;20029;-85
2021/11/15 13:53:13;;;;;;;8.35;3.13;;;;;;;;;;5013822;28;20032;-86
2021/11/15 13:55:39;;;;;;;5.03;3.40;;;;;;;;;;5027191;28;20492;-85
2021/11/15 13:58:05;;;;;;;8.95;4.03;;;;;;;;;;5027774;28;20053;-86
2021/11/15 14:00:31;;;;;;;9.38;3.70;;;;;;;;;;5027932;28;20644;-84
2021/11/15 14:02:57;;;;;;;11.88;3.42;;;;;;;;;;5023689;28;20520;-85
2021/11/15 14:05:23;;;;;;;6.63;2.65;;;;;;;;;;5025979;28;20044;-86
2021/11/15 14:07:49;;;;;;;10.07;2.90;;;;;;;;;;5025175;28;20025;-87
2021/11/15 14:10:16;;;;;;;6.53;4.07;;;;;;;;;;5029302;28;20025;-88
2021/11/15 14:12:42;;;;;;;6.75;3.75;;;;;;;;;;5020966;28;20032;-86
2021/11/15 14:15:08;;;;;;;9.80;4.38;;;;;;;;;;5017392;28;20042;-87
2021/11/15 14:17:34;;;;;;;6.07;2.75;;;;;;;;;;5027100;28;20045;-86
2021/11/15 14:20:01;;;;;;;8.32;4.13;;;;;;;;;;5028184;28;20025;-86
2021/11/15 14:22:27;;;;;;;10.38;3.30;;;;;;;;;;5024404;28;20036;-86
2021/11/15 14:24:53;;;;;;;3.60;3.10;;;;;;;;;;5018765;28;20112;-84
2021/11/15 14:27:19;;;;;;;6.70;3.70;;;;;;;;;;5016444;28;20117;-86
2021/11/15 14:29:47;;;;;;;9.00;4.40;;;11.00;77.20;;;;;;5015459;28;20034;-88
2021/11/15 14:32:13;;;;;;;7.40;3.78;;;;;;;;;;5028344;28;20311;-86
2021/11/15 14:34:45;;;;;;;10.73;3.33;;;;;;;;;;5024416;28;20033;-86
2021/11/15 14:37:12;;;;;;;8.98;4.10;;;;;;;;;;5024332;28;20034;-85